RJTJ(METAR)
03/23 14:00
METAR RJTJ 230500Z 33005KT 290V360 9999 FEW030 BKN200 13/M08 Q1014
RMK 1CU030 A2995=
戻る
トップページへ戻る
IMOC Co,.Ltd.